createdAt,value
2022-12-29T00:01:05.292Z,4.28
2022-12-29T00:03:32.158Z,4.13
2022-12-29T00:06:03.764Z,3.33
2022-12-29T00:08:42.074Z,4.28
2022-12-29T00:11:19.571Z,2.90
2022-12-29T00:14:04.847Z,2.92
2022-12-29T00:16:32.774Z,4.63
2022-12-29T00:19:00.313Z,4.82
2022-12-29T00:21:46.298Z,3.40
2022-12-29T00:24:23.073Z,5.00
2022-12-29T00:27:27.027Z,5.38
2022-12-29T00:30:14.829Z,4.22
2022-12-29T00:33:02.863Z,5.25
2022-12-29T00:35:37.503Z,3.78
2022-12-29T00:38:26.735Z,3.10
2022-12-29T00:41:14.434Z,5.47
2022-12-29T00:44:00.212Z,4.50
2022-12-29T00:46:27.159Z,3.25
2022-12-29T00:49:12.585Z,2.15
2022-12-29T00:51:39.288Z,3.58
2022-12-29T00:54:10.529Z,2.88
2022-12-29T00:56:39.747Z,3.97
2022-12-29T00:59:09.043Z,3.50
2022-12-29T01:01:37.121Z,4.80
2022-12-29T01:04:09.343Z,3.13
2022-12-29T01:06:40.078Z,3.30
2022-12-29T01:09:25.912Z,3.67
2022-12-29T01:11:55.351Z,5.13
2022-12-29T01:14:25.089Z,4.20
2022-12-29T01:16:52.828Z,3.63
2022-12-29T01:19:22.399Z,4.47
2022-12-29T01:21:49.429Z,3.22
2022-12-29T01:24:18.455Z,4.63
2022-12-29T01:26:48.543Z,3.97
2022-12-29T01:29:15.386Z,3.13
2022-12-29T01:31:42.232Z,4.55
2022-12-29T01:34:08.997Z,4.63
2022-12-29T01:36:38.046Z,4.07
2022-12-29T01:39:07.002Z,2.53
2022-12-29T01:41:38.936Z,5.32
2022-12-29T01:45:01.179Z,4.40
2022-12-29T01:50:18.627Z,4.65
2022-12-29T01:52:55.572Z,6.53
2022-12-29T01:55:23.324Z,6.43
2022-12-29T01:57:53.604Z,6.05
2022-12-29T02:00:20.485Z,10.20
2022-12-29T02:02:52.529Z,9.82
2022-12-29T02:05:43.615Z,7.22
2022-12-29T02:08:12.196Z,5.53
2022-12-29T02:10:40.131Z,7.65
2022-12-29T02:13:09.448Z,10.27
2022-12-29T02:15:45.048Z,8.38
2022-12-29T02:18:45.508Z,10.93
2022-12-29T02:21:20.923Z,7.38
2022-12-29T02:24:04.608Z,12.55
2022-12-29T02:27:07.698Z,10.77
2022-12-29T02:30:00.577Z,9.48
2022-12-29T02:32:41.822Z,10.63
2022-12-29T02:35:37.204Z,10.48
2022-12-29T02:38:40.057Z,9.52
2022-12-29T02:41:12.951Z,10.60
2022-12-29T02:44:15.355Z,8.30
2022-12-29T02:47:19.534Z,14.85
2022-12-29T02:49:48.626Z,13.98
2022-12-29T02:52:21.048Z,19.45
2022-12-29T02:54:50.793Z,15.02
2022-12-29T02:57:23.824Z,12.02
2022-12-29T02:59:57.002Z,12.82
2022-12-29T03:02:35.406Z,11.60
2022-12-29T03:05:08.034Z,21.58
2022-12-29T03:08:16.134Z,15.88
2022-12-29T03:10:54.296Z,12.25
2022-12-29T03:13:39.551Z,16.05
2022-12-29T03:16:17.021Z,11.50
2022-12-29T03:19:22.374Z,12.48
2022-12-29T03:22:14.630Z,9.77
2022-12-29T03:24:47.642Z,11.35
2022-12-29T03:27:19.825Z,12.65
2022-12-29T03:29:58.597Z,9.90
2022-12-29T03:32:31.521Z,10.27
2022-12-29T03:35:02.513Z,13.30
2022-12-29T03:37:35.299Z,8.25
2022-12-29T03:40:02.411Z,12.10
2022-12-29T03:42:33.435Z,8.27
2022-12-29T03:45:02.652Z,9.55
2022-12-29T03:47:32.030Z,11.25
2022-12-29T03:49:58.738Z,11.23
2022-12-29T03:52:27.919Z,10.55
2022-12-29T03:54:54.755Z,8.25
2022-12-29T03:57:22.581Z,9.95
2022-12-29T03:59:51.465Z,13.20
2022-12-29T04:02:20.525Z,11.57
2022-12-29T04:04:47.458Z,18.88
2022-12-29T04:07:14.848Z,10.05
2022-12-29T04:09:44.124Z,15.23
2022-12-29T04:12:15.510Z,16.67
2022-12-29T04:14:44.725Z,24.60
2022-12-29T04:17:16.295Z,16.73
2022-12-29T04:19:48.357Z,18.58
2022-12-29T04:22:17.796Z,18.50
2022-12-29T04:24:45.184Z,12.02
2022-12-29T04:27:12.006Z,12.63
2022-12-29T04:29:41.287Z,12.90
2022-12-29T04:32:07.998Z,14.35
2022-12-29T04:34:36.940Z,15.50
2022-12-29T04:37:06.609Z,15.73
2022-12-29T04:39:35.283Z,14.35
2022-12-29T04:42:02.014Z,12.70
2022-12-29T04:44:31.281Z,9.00
2022-12-29T04:47:01.330Z,11.10
2022-12-29T04:49:28.044Z,12.45
2022-12-29T04:52:03.181Z,14.82
2022-12-29T04:54:32.714Z,19.13
2022-12-29T04:56:59.677Z,13.00
2022-12-29T04:59:28.704Z,14.20
2022-12-29T05:01:55.524Z,13.88
2022-12-29T05:04:22.318Z,16.70
2022-12-29T05:06:52.203Z,12.60
2022-12-29T05:09:19.130Z,17.85
2022-12-29T05:11:48.131Z,15.52
2022-12-29T05:14:19.688Z,16.52
2022-12-29T05:16:48.683Z,17.98
2022-12-29T05:19:17.564Z,16.95
2022-12-29T05:21:47.931Z,15.52
2022-12-29T05:24:14.899Z,20.30
2022-12-29T05:26:42.085Z,15.90
2022-12-29T05:29:08.903Z,18.98
2022-12-29T05:31:38.126Z,20.98
2022-12-29T05:34:04.977Z,21.38
2022-12-29T05:36:38.006Z,17.23
2022-12-29T05:39:05.534Z,19.55
2022-12-29T05:41:32.267Z,19.58
2022-12-29T05:43:58.929Z,17.80
2022-12-29T05:46:25.949Z,24.80
2022-12-29T05:48:54.921Z,20.27
2022-12-29T05:51:24.237Z,26.20
2022-12-29T05:53:51.287Z,27.23
2022-12-29T05:56:18.131Z,29.05
2022-12-29T05:58:44.876Z,24.15
2022-12-29T06:01:14.127Z,24.52
2022-12-29T06:03:47.761Z,14.93
2022-12-29T06:06:18.604Z,18.23
2022-12-29T06:08:47.842Z,21.52
2022-12-29T06:11:17.140Z,21.63
2022-12-29T06:13:43.935Z,17.52
2022-12-29T06:16:13.349Z,31.38
2022-12-29T06:18:42.434Z,15.63
2022-12-29T06:21:09.191Z,26.92
2022-12-29T06:23:35.931Z,16.95
2022-12-29T06:26:02.789Z,24.73
2022-12-29T06:28:29.537Z,22.30
2022-12-29T06:30:58.784Z,19.92
2022-12-29T06:33:25.491Z,26.65
2022-12-29T06:35:55.600Z,20.88
2022-12-29T06:38:24.499Z,23.58
2022-12-29T06:40:53.499Z,22.67
2022-12-29T06:43:22.521Z,31.35
2022-12-29T06:45:49.430Z,23.10
2022-12-29T06:48:16.203Z,23.88
2022-12-29T06:50:43.945Z,17.20
2022-12-29T06:53:10.679Z,23.15
2022-12-29T06:55:38.055Z,24.90
2022-12-29T06:58:07.195Z,16.48
2022-12-29T07:00:33.897Z,18.23
2022-12-29T07:03:03.059Z,11.38
2022-12-29T07:05:32.408Z,16.25
2022-12-29T07:07:59.502Z,15.65
2022-12-29T07:10:29.423Z,11.57
2022-12-29T07:12:58.496Z,17.27
2022-12-29T07:15:25.248Z,18.25
2022-12-29T07:17:54.593Z,17.77
2022-12-29T07:20:27.023Z,19.58
2022-12-29T07:22:56.303Z,21.17
2022-12-29T07:25:23.732Z,19.58
2022-12-29T07:27:53.188Z,16.95
2022-12-29T07:30:20.155Z,22.50
2022-12-29T07:32:46.938Z,24.33
2022-12-29T07:35:16.202Z,24.00
2022-12-29T07:37:44.459Z,16.20
2022-12-29T07:40:14.324Z,17.13
2022-12-29T07:42:43.753Z,21.42
2022-12-29T07:45:11.161Z,17.70
2022-12-29T07:47:40.447Z,18.73
2022-12-29T07:50:07.583Z,21.42
2022-12-29T07:52:34.353Z,21.13
2022-12-29T07:55:01.131Z,25.15
2022-12-29T07:57:32.509Z,22.55
2022-12-29T07:59:59.729Z,22.17
2022-12-29T08:02:27.633Z,25.08
2022-12-29T08:04:56.767Z,21.48
2022-12-29T08:07:23.582Z,21.60
2022-12-29T08:09:50.292Z,18.42
2022-12-29T08:12:17.015Z,20.80
2022-12-29T08:14:43.782Z,21.20
2022-12-29T08:17:13.171Z,21.67
2022-12-29T08:19:44.613Z,22.80
2022-12-29T08:22:13.527Z,23.58
2022-12-29T08:24:42.442Z,22.70
2022-12-29T08:27:16.169Z,20.50
2022-12-29T08:29:46.961Z,17.27
2022-12-29T08:32:15.898Z,21.92
2022-12-29T08:34:42.678Z,25.00
2022-12-29T08:37:16.786Z,24.08
2022-12-29T08:39:46.056Z,25.55
2022-12-29T08:42:12.976Z,25.42
2022-12-29T08:44:39.702Z,21.95
2022-12-29T08:47:06.506Z,23.70
2022-12-29T08:49:34.405Z,26.30
2022-12-29T08:52:03.314Z,27.67
2022-12-29T08:54:30.055Z,22.50
2022-12-29T08:56:56.849Z,19.13
2022-12-29T08:59:24.096Z,26.90
2022-12-29T09:01:50.947Z,23.73
2022-12-29T09:04:18.509Z,21.92
2022-12-29T09:06:46.412Z,24.10
2022-12-29T09:09:15.707Z,17.88
2022-12-29T09:11:45.672Z,24.25
2022-12-29T09:14:15.519Z,21.90
2022-12-29T09:17:00.762Z,24.73
2022-12-29T09:19:31.168Z,27.08
2022-12-29T09:22:00.125Z,29.30
2022-12-29T09:24:26.957Z,25.02
2022-12-29T09:26:58.966Z,19.27
2022-12-29T09:29:25.829Z,25.92
2022-12-29T09:31:55.479Z,23.25
2022-12-29T09:34:27.093Z,27.55
2022-12-29T09:36:53.927Z,23.38
2022-12-29T09:39:24.926Z,22.70
2022-12-29T09:42:13.959Z,22.05
2022-12-29T09:45:03.940Z,20.13
2022-12-29T09:47:31.387Z,25.73
2022-12-29T09:50:26.607Z,32.65
2022-12-29T09:53:06.720Z,25.77
2022-12-29T09:55:55.480Z,31.42
2022-12-29T09:58:35.851Z,28.23
2022-12-29T10:01:39.661Z,32.05
2022-12-29T10:04:06.523Z,33.40
2022-12-29T10:10:11.923Z,34.00
2022-12-29T10:13:08.285Z,29.90
2022-12-29T10:15:40.765Z,41.20
2022-12-29T10:18:15.805Z,33.55
2022-12-29T10:21:07.144Z,34.80
2022-12-29T10:23:43.925Z,34.22
2022-12-29T10:26:20.588Z,33.50
2022-12-29T10:28:50.239Z,29.70
2022-12-29T10:31:41.111Z,35.67
2022-12-29T10:34:26.784Z,32.70
2022-12-29T10:37:26.406Z,28.75
2022-12-29T10:39:58.248Z,37.38
2022-12-29T10:42:40.517Z,34.45
2022-12-29T10:45:13.165Z,28.67
2022-12-29T10:48:10.995Z,31.20
2022-12-29T10:50:43.696Z,28.83
2022-12-29T10:53:31.026Z,28.02
2022-12-29T10:56:01.903Z,35.35
2022-12-29T10:58:30.235Z,30.17
2022-12-29T11:01:00.629Z,37.10
2022-12-29T11:03:45.598Z,33.80
2022-12-29T11:06:18.579Z,33.38
2022-12-29T11:09:13.398Z,29.73
2022-12-29T11:11:40.162Z,31.48
2022-12-29T11:14:19.028Z,21.38
2022-12-29T11:16:59.741Z,22.35
2022-12-29T11:19:33.850Z,19.77
2022-12-29T11:22:22.160Z,17.38
2022-12-29T11:24:50.720Z,26.20
2022-12-29T11:27:17.441Z,27.00
2022-12-29T11:29:45.245Z,36.53
2022-12-29T11:32:28.761Z,22.48
2022-12-29T11:34:59.670Z,23.23
2022-12-29T11:37:29.320Z,22.50
2022-12-29T11:40:02.185Z,21.30
2022-12-29T11:42:40.523Z,12.48
2022-12-29T11:45:18.056Z,13.85
2022-12-29T11:47:53.255Z,16.48
2022-12-29T11:50:24.046Z,17.10
2022-12-29T11:52:58.858Z,18.47
2022-12-29T11:55:27.777Z,22.23
2022-12-29T11:57:58.206Z,21.23
2022-12-29T12:00:27.051Z,22.23
2022-12-29T12:03:31.624Z,25.83
2022-12-29T12:06:11.076Z,27.08
2022-12-29T12:08:46.664Z,30.70
2022-12-29T12:11:25.273Z,23.83
2022-12-29T12:14:16.812Z,29.13
2022-12-29T12:16:59.316Z,17.65
2022-12-29T12:19:37.789Z,23.08
2022-12-29T12:22:15.818Z,21.73
2022-12-29T12:24:59.015Z,19.95
2022-12-29T12:27:52.730Z,22.70
2022-12-29T12:30:24.847Z,23.27
2022-12-29T12:33:03.300Z,14.30
2022-12-29T12:35:53.760Z,18.95
2022-12-29T12:38:50.292Z,20.88
2022-12-29T12:41:32.213Z,14.63
2022-12-29T12:44:20.433Z,19.63
2022-12-29T12:47:01.561Z,18.90
2022-12-29T12:50:00.711Z,20.73
2022-12-29T12:52:47.043Z,25.92
2022-12-29T12:55:25.727Z,24.02
2022-12-29T12:58:13.812Z,31.20
2022-12-29T13:01:00.797Z,20.17
2022-12-29T13:03:46.233Z,21.83
2022-12-29T13:06:27.831Z,24.45
2022-12-29T13:09:07.522Z,27.08
2022-12-29T13:11:44.654Z,24.17
2022-12-29T13:14:19.532Z,23.45
2022-12-29T13:17:06.560Z,24.73
2022-12-29T13:19:48.640Z,26.67
2022-12-29T13:22:27.348Z,21.95
2022-12-29T13:25:30.751Z,22.65
2022-12-29T13:27:57.490Z,22.13
2022-12-29T13:30:31.323Z,18.80
2022-12-29T13:33:21.351Z,23.52
2022-12-29T13:35:53.863Z,21.63
2022-12-29T13:38:38.911Z,14.18
2022-12-29T13:41:31.272Z,15.02
2022-12-29T13:44:01.828Z,14.60
2022-12-29T13:46:40.377Z,14.93
2022-12-29T13:49:21.901Z,13.40
2022-12-29T13:52:04.137Z,11.63
2022-12-29T13:54:43.829Z,13.07
2022-12-29T13:57:50.899Z,14.98
2022-12-29T14:00:22.941Z,16.33
2022-12-29T14:03:11.038Z,15.63
2022-12-29T14:05:40.469Z,15.27
2022-12-29T14:08:18.187Z,15.02
2022-12-29T14:10:52.687Z,18.55
2022-12-29T14:13:25.928Z,15.55
2022-12-29T14:16:00.354Z,14.55
2022-12-29T14:18:45.492Z,15.48
2022-12-29T14:21:23.735Z,13.48
2022-12-29T14:23:54.565Z,19.70
2022-12-29T14:26:30.198Z,18.33
2022-12-29T14:29:01.426Z,19.92
2022-12-29T14:31:31.462Z,18.00
2022-12-29T14:34:09.645Z,21.05
2022-12-29T14:36:40.246Z,19.25
2022-12-29T14:39:29.146Z,14.55
2022-12-29T14:42:10.423Z,13.93
2022-12-29T14:45:06.601Z,18.52
2022-12-29T14:47:39.313Z,18.63
2022-12-29T14:50:23.895Z,16.00
2022-12-29T14:52:52.143Z,16.85
2022-12-29T14:55:55.959Z,16.35
2022-12-29T14:58:32.175Z,20.10
2022-12-29T15:01:00.747Z,13.27
2022-12-29T15:03:44.380Z,14.40
2022-12-29T15:06:23.063Z,15.82
2022-12-29T15:09:00.462Z,17.30
2022-12-29T15:12:11.171Z,22.48
2022-12-29T15:14:57.560Z,20.00
2022-12-29T15:17:29.272Z,18.05
2022-12-29T15:22:26.436Z,17.33
2022-12-29T15:24:59.000Z,18.92
2022-12-29T15:27:28.309Z,22.85
2022-12-29T15:30:02.759Z,16.73
2022-12-29T15:32:40.017Z,24.52
2022-12-29T15:35:31.494Z,24.08
2022-12-29T15:37:59.589Z,29.02
2022-12-29T15:40:36.601Z,18.85
2022-12-29T15:43:26.646Z,27.30
2022-12-29T15:45:56.092Z,16.13
2022-12-29T15:48:25.348Z,24.25
2022-12-29T15:50:52.949Z,16.67
2022-12-29T15:53:30.319Z,13.38
2022-12-29T15:56:11.164Z,19.13
2022-12-29T15:58:47.550Z,18.30
2022-12-29T16:01:30.053Z,15.77
2022-12-29T16:03:59.212Z,16.20
2022-12-29T16:06:32.295Z,16.50
2022-12-29T16:09:03.461Z,13.52
2022-12-29T16:11:38.274Z,11.13
2022-12-29T16:14:15.857Z,13.75
2022-12-29T16:16:44.353Z,17.92
2022-12-29T16:19:36.476Z,21.40
2022-12-29T16:22:10.821Z,17.30
2022-12-29T16:24:40.403Z,15.32
2022-12-29T16:27:35.043Z,13.77
2022-12-29T16:30:19.654Z,13.63
2022-12-29T16:32:51.771Z,19.02
2022-12-29T16:35:21.928Z,15.90
2022-12-29T16:37:49.506Z,17.00
2022-12-29T16:40:21.249Z,20.45
2022-12-29T16:45:24.927Z,20.15
2022-12-29T16:48:06.869Z,23.83
2022-12-29T16:50:46.910Z,27.45
2022-12-29T16:53:39.390Z,21.85
2022-12-29T16:56:24.373Z,19.77
2022-12-29T16:58:57.116Z,21.75
2022-12-29T17:01:24.039Z,18.92
2022-12-29T17:04:03.865Z,15.25
2022-12-29T17:06:31.636Z,17.20
2022-12-29T17:09:00.756Z,18.08
2022-12-29T17:11:58.480Z,19.45
2022-12-29T17:14:46.760Z,16.08
2022-12-29T17:17:33.850Z,13.20
2022-12-29T17:20:16.865Z,15.10
2022-12-29T17:22:43.812Z,16.77
2022-12-29T17:25:19.342Z,13.85
2022-12-29T17:27:59.729Z,16.95
2022-12-29T17:30:33.115Z,14.90
2022-12-29T17:33:09.815Z,14.88
2022-12-29T17:35:37.277Z,16.27
2022-12-29T17:38:20.434Z,15.07
2022-12-29T17:40:47.562Z,19.80
2022-12-29T17:43:15.655Z,20.67
2022-12-29T17:45:44.561Z,17.67
2022-12-29T17:48:17.586Z,18.70
2022-12-29T17:50:46.127Z,20.63
2022-12-29T17:53:25.765Z,15.32
2022-12-29T17:55:52.884Z,25.08
2022-12-29T17:58:28.880Z,17.90
2022-12-29T18:00:59.636Z,22.52
2022-12-29T18:03:35.505Z,18.73
2022-12-29T18:06:06.526Z,19.13
2022-12-29T18:08:35.406Z,19.37
2022-12-29T18:11:06.631Z,23.33
2022-12-29T18:13:45.949Z,17.17
2022-12-29T18:16:16.173Z,21.80
2022-12-29T18:18:45.546Z,18.13
2022-12-29T18:21:21.076Z,18.77
2022-12-29T18:23:52.753Z,19.95
2022-12-29T18:26:27.894Z,25.85
2022-12-29T18:28:56.487Z,28.95
2022-12-29T18:31:28.494Z,21.48
2022-12-29T18:33:57.353Z,17.80
2022-12-29T18:36:25.015Z,20.52
2022-12-29T18:38:54.534Z,24.70
2022-12-29T18:41:26.150Z,25.60
2022-12-29T18:43:52.964Z,21.90
2022-12-29T18:46:23.157Z,23.17
2022-12-29T18:48:53.728Z,29.45
2022-12-29T18:51:23.110Z,26.23
2022-12-29T18:53:52.983Z,24.35
2022-12-29T18:56:22.573Z,32.33
2022-12-29T18:58:49.876Z,25.88
2022-12-29T19:01:20.891Z,30.92
2022-12-29T19:03:52.734Z,29.85
2022-12-29T19:08:52.239Z,24.52
2022-12-29T19:11:24.193Z,24.63
2022-12-29T19:13:52.055Z,21.77
2022-12-29T19:16:23.662Z,25.30
2022-12-29T19:21:36.821Z,26.85
2022-12-29T19:24:06.133Z,28.58
2022-12-29T19:26:36.462Z,34.10
2022-12-29T19:29:16.950Z,32.50
2022-12-29T19:31:48.431Z,27.08
2022-12-29T19:34:16.256Z,28.20
2022-12-29T19:36:45.835Z,31.30
2022-12-29T19:39:20.903Z,21.45
2022-12-29T19:41:59.088Z,24.40
2022-12-29T19:44:31.567Z,33.65
2022-12-29T19:46:58.559Z,26.80
2022-12-29T19:49:34.134Z,34.20
2022-12-29T19:52:03.532Z,32.90
2022-12-29T19:54:35.531Z,25.38
2022-12-29T19:57:10.049Z,33.08
2022-12-29T19:59:41.569Z,27.77
2022-12-29T20:02:21.677Z,26.02
2022-12-29T20:04:51.609Z,29.10
2022-12-29T20:07:22.052Z,25.77
2022-12-29T20:09:52.026Z,32.95
2022-12-29T20:12:29.436Z,35.17
2022-12-29T20:14:59.405Z,36.63
2022-12-29T20:18:02.398Z,29.92
2022-12-29T20:20:15.627Z,30.95
2022-12-29T20:22:44.562Z,26.13
2022-12-29T20:25:53.880Z,24.38
2022-12-29T20:28:03.020Z,32.75
2022-12-29T20:30:29.790Z,29.00
2022-12-29T20:33:02.158Z,23.88
2022-12-29T20:35:36.295Z,33.50
2022-12-29T20:38:05.900Z,30.25
2022-12-29T20:40:38.024Z,29.08
2022-12-29T20:43:09.922Z,31.45
2022-12-29T20:45:41.377Z,32.63
2022-12-29T20:48:08.277Z,29.17
2022-12-29T20:50:37.182Z,38.70
2022-12-29T20:53:04.114Z,29.10
2022-12-29T20:55:30.856Z,28.30
2022-12-29T20:58:23.256Z,34.10
2022-12-29T21:00:44.618Z,31.15
2022-12-29T21:03:13.983Z,33.85
2022-12-29T21:05:40.840Z,29.70
2022-12-29T21:08:07.538Z,26.02
2022-12-29T21:10:36.545Z,27.45
2022-12-29T21:13:03.345Z,33.90
2022-12-29T21:15:34.484Z,28.63
2022-12-29T21:18:04.375Z,26.02
2022-12-29T21:20:33.439Z,28.20
2022-12-29T21:23:01.736Z,29.27
2022-12-29T21:25:40.692Z,27.17
2022-12-29T21:28:12.305Z,25.83
2022-12-29T21:30:43.487Z,30.67
2022-12-29T21:33:12.584Z,27.55
2022-12-29T21:35:42.523Z,33.22
2022-12-29T21:38:09.556Z,28.80
2022-12-29T21:40:40.670Z,38.60
2022-12-29T21:43:07.876Z,29.17
2022-12-29T21:45:36.976Z,25.17
2022-12-29T21:48:23.466Z,25.38
2022-12-29T21:51:30.376Z,33.80
2022-12-29T21:54:18.968Z,27.17
2022-12-29T21:56:47.258Z,29.25
2022-12-29T21:59:33.857Z,30.38
2022-12-29T22:02:22.624Z,29.33
2022-12-29T22:05:08.191Z,23.80
2022-12-29T22:07:53.567Z,36.38
2022-12-29T22:10:39.130Z,29.52
2022-12-29T22:13:08.365Z,29.02
2022-12-29T22:15:37.291Z,25.63
2022-12-29T22:18:07.196Z,23.60
2022-12-29T22:20:38.222Z,25.88
2022-12-29T22:23:05.586Z,24.48
2022-12-29T22:25:34.852Z,27.38
2022-12-29T22:28:01.546Z,27.48
2022-12-29T22:30:28.906Z,24.52
2022-12-29T22:32:58.243Z,18.10
2022-12-29T22:35:25.431Z,26.02
2022-12-29T22:37:52.446Z,28.88
2022-12-29T22:40:19.449Z,22.42
2022-12-29T22:42:46.293Z,22.95
2022-12-29T22:45:13.142Z,23.42
2022-12-29T22:47:40.179Z,24.67
2022-12-29T22:50:07.408Z,20.70
2022-12-29T22:52:36.592Z,34.72
2022-12-29T22:55:09.554Z,22.58
2022-12-29T22:57:36.832Z,21.80
2022-12-29T23:00:08.164Z,17.75
2022-12-29T23:02:35.409Z,21.90
2022-12-29T23:05:04.711Z,23.20
2022-12-29T23:07:32.692Z,21.80
2022-12-29T23:09:59.440Z,22.80
2022-12-29T23:12:29.525Z,24.58
2022-12-29T23:14:58.703Z,26.63
2022-12-29T23:17:25.710Z,22.30
2022-12-29T23:19:52.657Z,25.73
2022-12-29T23:22:22.893Z,22.48
2022-12-29T23:24:52.179Z,25.77
2022-12-29T23:27:18.963Z,26.33
2022-12-29T23:29:45.649Z,17.42
2022-12-29T23:32:12.443Z,17.70
2022-12-29T23:34:39.143Z,21.02
2022-12-29T23:37:09.066Z,25.08
2022-12-29T23:39:35.931Z,23.33
2022-12-29T23:42:02.647Z,22.15
2022-12-29T23:44:29.937Z,26.48
2022-12-29T23:46:56.824Z,24.33
2022-12-29T23:49:23.907Z,22.58
2022-12-29T23:51:50.593Z,23.98
2022-12-29T23:54:17.369Z,26.92
2022-12-29T23:56:46.340Z,15.90
2022-12-29T23:59:13.064Z,26.05
